createdAt,value
2019-05-13T00:00:34.139Z,0
2019-05-13T00:03:33.369Z,0
2019-05-13T00:06:34.385Z,0
2019-05-13T00:09:33.970Z,0
2019-05-13T00:12:31.869Z,0
2019-05-13T00:15:31.003Z,0
2019-05-13T00:18:33.767Z,0
2019-05-13T00:21:33.834Z,0
2019-05-13T00:24:33.903Z,0
2019-05-13T00:27:33.780Z,0
2019-05-13T00:30:34.259Z,0
2019-05-13T00:33:33.834Z,0
2019-05-13T00:36:33.770Z,0
2019-05-13T00:39:33.709Z,0
2019-05-13T00:42:33.336Z,0
2019-05-13T00:45:34.020Z,0
2019-05-13T00:48:33.453Z,0
2019-05-13T00:51:33.759Z,0
2019-05-13T00:54:30.933Z,0
2019-05-13T00:57:34.119Z,0
2019-05-13T01:00:33.832Z,0
2019-05-13T01:03:33.777Z,0
2019-05-13T01:06:31.333Z,0
2019-05-13T01:09:34.059Z,0
2019-05-13T01:12:31.572Z,0
2019-05-13T01:15:34.258Z,0
2019-05-13T01:18:34.001Z,0
2019-05-13T01:21:34.332Z,0
2019-05-13T01:24:33.631Z,0
2019-05-13T01:27:33.432Z,0
2019-05-13T01:30:34.529Z,0
2019-05-13T01:33:31.243Z,0
2019-05-13T01:36:34.054Z,0
2019-05-13T01:39:34.643Z,0
2019-05-13T01:42:33.651Z,0
2019-05-13T01:45:33.479Z,0
2019-05-13T01:48:33.322Z,0
2019-05-13T01:51:33.491Z,0
2019-05-13T01:54:33.844Z,0
2019-05-13T01:57:34.127Z,0
2019-05-13T02:00:34.939Z,0
2019-05-13T02:03:33.790Z,0
2019-05-13T02:06:33.575Z,0
2019-05-13T02:09:33.629Z,0
2019-05-13T02:12:30.969Z,0
2019-05-13T02:15:31.082Z,0
2019-05-13T02:18:33.920Z,0
2019-05-13T02:21:33.607Z,0
2019-05-13T02:24:30.767Z,0
2019-05-13T02:27:34.396Z,0
2019-05-13T02:30:37.299Z,0
2019-05-13T02:33:36.339Z,0
2019-05-13T02:36:35.370Z,0
2019-05-13T02:39:35.105Z,0
2019-05-13T02:42:35.118Z,0
2019-05-13T02:45:33.307Z,0
2019-05-13T02:48:35.481Z,0
2019-05-13T02:51:35.217Z,0
2019-05-13T02:54:36.652Z,0
2019-05-13T02:57:35.232Z,0
2019-05-13T03:00:35.201Z,0
2019-05-13T03:03:35.298Z,0
2019-05-13T03:06:35.792Z,0
2019-05-13T03:09:34.883Z,1
2019-05-13T03:12:32.261Z,1
2019-05-13T03:15:37.608Z,2
2019-05-13T03:18:35.965Z,3
2019-05-13T03:21:34.967Z,6
2019-05-13T03:24:35.611Z,8
2019-05-13T03:27:37.441Z,14
2019-05-13T03:30:38.164Z,22
2019-05-13T03:33:45.434Z,33
2019-05-13T03:36:45.043Z,49
2019-05-13T03:39:35.713Z,70
2019-05-13T03:42:35.859Z,96
2019-05-13T03:45:35.116Z,129
2019-05-13T03:48:35.722Z,169
2019-05-13T03:51:35.225Z,217
2019-05-13T03:54:35.215Z,271
2019-05-13T03:57:36.106Z,332
2019-05-13T04:00:34.834Z,399
2019-05-13T04:03:33.098Z,469
2019-05-13T04:06:34.936Z,540
2019-05-13T04:09:45.603Z,617
2019-05-13T04:12:36.133Z,695
2019-05-13T04:15:35.850Z,767
2019-05-13T04:18:34.362Z,843
2019-05-13T04:21:36.253Z,926
2019-05-13T04:24:33.243Z,1013
2019-05-13T04:27:35.038Z,1099
2019-05-13T04:30:35.567Z,1200
2019-05-13T04:33:35.791Z,1320
2019-05-13T04:36:31.967Z,1444
2019-05-13T04:39:52.635Z,1590
2019-05-13T04:42:33.344Z,1802
2019-05-13T04:45:35.487Z,2132
2019-05-13T04:48:33.984Z,2600
2019-05-13T04:51:35.273Z,3426
2019-05-13T04:54:35.488Z,5190
2019-05-13T04:57:35.749Z,7181
2019-05-13T05:01:14.042Z,15005
2019-05-13T05:04:03.368Z,15885
2019-05-13T05:06:44.790Z,16354
2019-05-13T05:10:38.303Z,17241
2019-05-13T05:13:04.653Z,16926
2019-05-13T05:16:06.626Z,17628
2019-05-13T05:20:15.828Z,18626
2019-05-13T05:21:52.673Z,18683
2019-05-13T05:24:55.055Z,18479
2019-05-13T05:28:02.100Z,19095
2019-05-13T05:31:07.009Z,20907
2019-05-13T05:34:57.173Z,23487
2019-05-13T05:37:01.273Z,22403
2019-05-13T05:39:34.034Z,19923
2019-05-13T05:42:34.566Z,17410
2019-05-13T05:45:34.188Z,15573
2019-05-13T05:48:34.324Z,19557
2019-05-13T05:51:34.465Z,23082
2019-05-13T05:54:34.110Z,28349
2019-05-13T05:57:35.100Z,28907
2019-05-13T06:00:32.367Z,36982
2019-05-13T06:03:35.085Z,34658
2019-05-13T06:06:35.481Z,44414
2019-05-13T06:09:34.599Z,32877
2019-05-13T06:12:33.879Z,27054
2019-05-13T06:15:31.537Z,36019
2019-05-13T06:18:35.045Z,41851
2019-05-13T06:21:34.571Z,32839
2019-05-13T06:24:44.952Z,32032
2019-05-13T06:31:21.706Z,37625
2019-05-13T06:33:34.131Z,45631
2019-05-13T06:36:33.981Z,38277
2019-05-13T06:39:31.763Z,39681
2019-05-13T06:45:34.085Z,38141
2019-05-13T06:48:34.662Z,45483
2019-05-13T06:54:35.464Z,54612
2019-05-13T06:57:32.301Z,51820
2019-05-13T07:00:37.468Z,38612
2019-05-13T07:03:34.585Z,46428
2019-05-13T07:06:34.851Z,41106
2019-05-13T07:09:32.274Z,38730
2019-05-13T07:12:33.806Z,38720
2019-05-13T07:15:31.470Z,44391
2019-05-13T07:18:34.751Z,42502
2019-05-13T07:21:34.708Z,54612
2019-05-13T07:24:34.846Z,37907
2019-05-13T07:27:31.804Z,41387
2019-05-13T07:30:45.166Z,54612
2019-05-13T07:33:34.501Z,40449
2019-05-13T07:36:34.053Z,41044
2019-05-13T07:39:32.748Z,37649
2019-05-13T07:42:33.553Z,52510
2019-05-13T07:45:34.007Z,54612
2019-05-13T07:48:44.004Z,54612
2019-05-13T07:51:31.620Z,54612
2019-05-13T07:54:33.014Z,54612
2019-05-13T07:57:34.140Z,28186
2019-05-13T08:00:32.625Z,24766
2019-05-13T08:03:34.179Z,23470
2019-05-13T08:06:32.312Z,22549
2019-05-13T08:09:34.639Z,23070
2019-05-13T08:12:34.370Z,23492
2019-05-13T08:15:34.011Z,23364
2019-05-13T08:18:34.164Z,23799
2019-05-13T08:21:32.265Z,23009
2019-05-13T08:24:34.080Z,24412
2019-05-13T08:27:37.060Z,15762
2019-05-13T08:30:34.482Z,27186
2019-05-13T08:33:34.613Z,29468
2019-05-13T08:36:32.814Z,30132
2019-05-13T08:39:41.488Z,30775
2019-05-13T08:42:38.000Z,32665
2019-05-13T08:48:32.309Z,33748
2019-05-13T08:51:36.900Z,32758
2019-05-13T08:54:32.815Z,34331
2019-05-13T08:57:31.587Z,33449
2019-05-13T09:01:04.902Z,31306
2019-05-13T09:03:32.520Z,32280
2019-05-13T09:06:33.566Z,34864
2019-05-13T09:09:33.911Z,35766
2019-05-13T09:12:47.892Z,34947
2019-05-13T09:15:31.662Z,40338
2019-05-13T09:18:32.161Z,50890
2019-05-13T09:21:34.138Z,50560
2019-05-13T09:24:46.378Z,44638
2019-05-13T09:27:34.177Z,46503
2019-05-13T09:30:33.933Z,51350
2019-05-13T09:36:32.415Z,50118
2019-05-13T09:39:36.343Z,49442
2019-05-13T09:42:52.832Z,44398
2019-05-13T09:45:32.182Z,50387
2019-05-13T09:48:34.324Z,49972
2019-05-13T09:51:32.398Z,49442
2019-05-13T09:54:35.520Z,54612
2019-05-13T09:57:34.493Z,54612
2019-05-13T10:00:34.756Z,54612
2019-05-13T10:03:52.888Z,54612
2019-05-13T10:06:35.061Z,54612
2019-05-13T10:09:32.678Z,54612
2019-05-13T10:12:31.927Z,54612
2019-05-13T10:15:32.597Z,39406
2019-05-13T10:18:35.100Z,54612
2019-05-13T10:21:32.677Z,54612
2019-05-13T10:24:32.768Z,52765
2019-05-13T10:27:35.308Z,50348
2019-05-13T10:30:34.420Z,43716
2019-05-13T10:33:34.561Z,54612
2019-05-13T10:36:32.246Z,54612
2019-05-13T10:39:31.190Z,54578
2019-05-13T10:42:32.686Z,54612
2019-05-13T10:45:35.560Z,54612
2019-05-13T10:49:52.358Z,54612
2019-05-13T10:51:35.025Z,11366
2019-05-13T10:54:34.854Z,11342
2019-05-13T10:57:34.388Z,9972
2019-05-13T11:00:54.377Z,10748
2019-05-13T11:03:35.574Z,11074
2019-05-13T11:06:35.271Z,54612
2019-05-13T11:09:35.036Z,50242
2019-05-13T11:12:33.557Z,52095
2019-05-13T11:15:45.387Z,54157
2019-05-13T11:18:54.442Z,27148
2019-05-13T11:21:55.828Z,51023
2019-05-13T11:24:37.212Z,54612
2019-05-13T11:27:34.768Z,47606
2019-05-13T11:30:34.588Z,7385
2019-05-13T11:33:34.349Z,7585
2019-05-13T11:36:36.126Z,7717
2019-05-13T11:39:34.851Z,8555
2019-05-13T11:42:32.725Z,10378
2019-05-13T11:45:33.967Z,6523
2019-05-13T11:48:32.347Z,6444
2019-05-13T11:51:34.789Z,6386
2019-05-13T11:54:31.714Z,6322
2019-05-13T11:57:34.439Z,6225
2019-05-13T12:00:55.751Z,6105
2019-05-13T12:03:35.119Z,6044
2019-05-13T12:06:44.179Z,6026
2019-05-13T12:12:12.287Z,5982
2019-05-13T12:13:46.574Z,5931
2019-05-13T12:15:58.831Z,5862
2019-05-13T12:18:31.359Z,5813
2019-05-13T12:21:32.985Z,5765
2019-05-13T12:24:31.025Z,5725
2019-05-13T12:27:34.095Z,5681
2019-05-13T12:30:36.482Z,5621
2019-05-13T12:33:35.185Z,5568
2019-05-13T12:36:35.450Z,5520
2019-05-13T12:39:34.395Z,5484
2019-05-13T12:42:42.274Z,5426
2019-05-13T12:45:31.502Z,5381
2019-05-13T12:48:32.515Z,5322
2019-05-13T12:51:35.065Z,5272
2019-05-13T12:54:32.453Z,5199
2019-05-13T12:57:34.989Z,5138
2019-05-13T13:00:32.997Z,5086
2019-05-13T13:03:32.283Z,5021
2019-05-13T13:06:48.065Z,4949
2019-05-13T13:09:33.497Z,4872
2019-05-13T13:12:41.937Z,4805
2019-05-13T13:15:55.412Z,4742
2019-05-13T13:18:37.348Z,4686
2019-05-13T13:21:39.872Z,4652
2019-05-13T13:28:15.314Z,4586
2019-05-13T13:30:38.082Z,4548
2019-05-13T13:33:36.832Z,4516
2019-05-13T13:36:36.269Z,4502
2019-05-13T13:39:34.921Z,4470
2019-05-13T13:42:33.015Z,4430
2019-05-13T13:46:08.756Z,4405
2019-05-13T13:48:33.295Z,4378
2019-05-13T13:54:36.043Z,4311
2019-05-13T13:57:34.833Z,4276
2019-05-13T14:01:18.140Z,4248
2019-05-13T14:03:36.428Z,4199
2019-05-13T14:06:25.163Z,54612
2019-05-13T14:07:42.486Z,4173
2019-05-13T14:09:32.343Z,4126
2019-05-13T14:12:32.487Z,4102
2019-05-13T14:15:36.811Z,4066
2019-05-13T14:18:31.676Z,4026
2019-05-13T14:21:32.401Z,3986
2019-05-13T14:24:33.031Z,3950
2019-05-13T14:27:34.032Z,3911
2019-05-13T14:30:33.547Z,3850
2019-05-13T14:33:37.642Z,3795
2019-05-13T14:36:36.635Z,3734
2019-05-13T14:39:36.210Z,3667
2019-05-13T14:42:34.645Z,3599
2019-05-13T14:45:34.246Z,3530
2019-05-13T14:48:32.855Z,3456
2019-05-13T14:54:33.614Z,3274
2019-05-13T14:57:34.612Z,3245
2019-05-13T15:00:35.071Z,3131
2019-05-13T15:03:32.623Z,3048
2019-05-13T15:06:32.690Z,2993
2019-05-13T15:09:31.455Z,2925
2019-05-13T15:12:34.725Z,2869
2019-05-13T15:15:34.105Z,2803
2019-05-13T15:18:32.697Z,2763
2019-05-13T15:21:34.437Z,2717
2019-05-13T15:24:34.744Z,2668
2019-05-13T15:27:34.160Z,2610
2019-05-13T15:30:34.641Z,2560
2019-05-13T15:33:35.247Z,2516
2019-05-13T15:36:33.883Z,2463
2019-05-13T15:39:31.544Z,2398
2019-05-13T15:42:37.562Z,2335
2019-05-13T15:45:34.408Z,2273
2019-05-13T15:48:33.963Z,2217
2019-05-13T15:51:31.430Z,2166
2019-05-13T15:54:35.044Z,2119
2019-05-13T15:57:31.920Z,2063
2019-05-13T16:00:32.132Z,2011
2019-05-13T16:03:31.228Z,1978
2019-05-13T16:06:32.227Z,1941
2019-05-13T16:09:33.954Z,1902
2019-05-13T16:12:32.034Z,1859
2019-05-13T16:15:34.492Z,1823
2019-05-13T16:18:34.248Z,1799
2019-05-13T16:21:32.025Z,1792
2019-05-13T16:24:32.133Z,1792
2019-05-13T16:27:33.574Z,1782
2019-05-13T16:30:34.869Z,1768
2019-05-13T16:33:31.353Z,1757
2019-05-13T16:36:33.944Z,1746
2019-05-13T16:39:31.824Z,1732
2019-05-13T16:42:34.246Z,1727
2019-05-13T16:45:34.115Z,1718
2019-05-13T16:48:32.382Z,1706
2019-05-13T16:51:34.084Z,1692
2019-05-13T16:54:32.901Z,1682
2019-05-13T16:57:31.673Z,1671
2019-05-13T17:00:31.843Z,1659
2019-05-13T17:03:31.955Z,1648
2019-05-13T17:07:08.222Z,1635
2019-05-13T17:09:35.566Z,1622
2019-05-13T17:12:36.489Z,1609
2019-05-13T17:15:33.671Z,1592
2019-05-13T17:18:35.027Z,1575
2019-05-13T17:21:36.065Z,1555
2019-05-13T17:24:34.346Z,1544
2019-05-13T17:27:38.460Z,1524
2019-05-13T17:31:11.546Z,1501
2019-05-13T17:33:31.985Z,1478
2019-05-13T17:36:51.911Z,1459
2019-05-13T17:42:34.450Z,1414
2019-05-13T17:45:39.052Z,1387
2019-05-13T17:48:52.027Z,1359
2019-05-13T17:54:34.498Z,1300
2019-05-13T17:57:44.380Z,1269
2019-05-13T18:00:46.212Z,1234
2019-05-13T18:03:43.547Z,1203
2019-05-13T18:06:31.142Z,1168
2019-05-13T18:09:31.834Z,1128
2019-05-13T18:12:31.256Z,1085
2019-05-13T18:15:31.434Z,1021
2019-05-13T18:18:47.605Z,998
2019-05-13T18:21:32.015Z,946
2019-05-13T18:24:32.047Z,901
2019-05-13T18:27:32.337Z,848
2019-05-13T18:30:31.809Z,792
2019-05-13T18:33:31.901Z,736
2019-05-13T18:36:31.825Z,676
2019-05-13T18:39:32.223Z,613
2019-05-13T18:42:31.698Z,553
2019-05-13T18:45:35.346Z,488
2019-05-13T18:48:32.242Z,425
2019-05-13T18:51:31.603Z,356
2019-05-13T18:54:34.054Z,302
2019-05-13T18:57:31.910Z,252
2019-05-13T19:00:32.223Z,202
2019-05-13T19:03:32.311Z,156
2019-05-13T19:06:33.995Z,116
2019-05-13T19:15:41.116Z,42
2019-05-13T19:18:32.048Z,28
2019-05-13T19:24:33.556Z,12
2019-05-13T19:27:32.091Z,8
2019-05-13T19:36:30.566Z,2
2019-05-13T19:39:33.675Z,2
2019-05-13T19:42:33.756Z,1
2019-05-13T19:45:34.610Z,0
2019-05-13T19:48:32.700Z,0
2019-05-13T19:51:32.257Z,0
2019-05-13T19:55:06.561Z,0
2019-05-13T19:57:34.069Z,0
2019-05-13T20:03:31.764Z,0
2019-05-13T20:06:31.996Z,0
2019-05-13T20:09:32.225Z,0
2019-05-13T20:12:34.551Z,0
2019-05-13T20:15:34.713Z,0
2019-05-13T20:18:36.097Z,0
2019-05-13T20:21:32.017Z,0
2019-05-13T20:24:31.330Z,0
2019-05-13T20:27:31.713Z,0
2019-05-13T20:30:45.514Z,0
2019-05-13T20:34:18.803Z,0
2019-05-13T20:36:47.702Z,0
2019-05-13T20:39:54.438Z,0
2019-05-13T20:42:53.913Z,0
2019-05-13T20:45:42.058Z,0
2019-05-13T20:48:37.794Z,0
2019-05-13T20:51:44.934Z,0
2019-05-13T20:54:33.992Z,0
2019-05-13T20:58:12.713Z,0
2019-05-13T21:00:33.787Z,0
2019-05-13T21:03:35.246Z,0
2019-05-13T21:09:34.069Z,0
2019-05-13T21:12:31.411Z,0
2019-05-13T21:15:31.712Z,0
2019-05-13T21:18:31.627Z,0
2019-05-13T21:21:31.143Z,0
2019-05-13T21:24:31.919Z,0
2019-05-13T21:27:31.526Z,0
2019-05-13T21:30:31.949Z,0
2019-05-13T21:33:31.506Z,0
2019-05-13T21:36:31.453Z,0
2019-05-13T21:39:32.002Z,0
2019-05-13T21:42:32.127Z,0
2019-05-13T21:45:30.523Z,0
2019-05-13T21:48:32.370Z,0
2019-05-13T21:51:33.781Z,0
2019-05-13T21:54:35.799Z,0
2019-05-13T21:57:32.936Z,0
2019-05-13T22:00:52.005Z,0
2019-05-13T22:03:33.176Z,0
2019-05-13T22:06:32.218Z,0
2019-05-13T22:09:31.770Z,0
2019-05-13T22:12:32.002Z,0
2019-05-13T22:15:32.289Z,0
2019-05-13T22:24:31.306Z,0
2019-05-13T22:30:33.398Z,0
2019-05-13T22:33:32.488Z,0
2019-05-13T22:36:31.819Z,0
2019-05-13T22:39:36.289Z,0
2019-05-13T22:42:32.220Z,0
2019-05-13T22:48:31.735Z,0
2019-05-13T22:51:32.015Z,0
2019-05-13T22:54:31.901Z,0
2019-05-13T22:57:31.368Z,0
2019-05-13T23:00:31.690Z,0
2019-05-13T23:03:32.398Z,0
2019-05-13T23:06:32.146Z,0
2019-05-13T23:09:32.202Z,0
2019-05-13T23:12:31.429Z,0
2019-05-13T23:15:31.002Z,0
2019-05-13T23:18:31.664Z,0
2019-05-13T23:21:31.290Z,0
2019-05-13T23:24:31.216Z,0
2019-05-13T23:30:33.585Z,0
2019-05-13T23:33:33.713Z,0
2019-05-13T23:36:33.850Z,0
2019-05-13T23:39:32.185Z,0
2019-05-13T23:42:32.006Z,0
2019-05-13T23:45:31.200Z,0
2019-05-13T23:48:32.115Z,0
2019-05-13T23:51:32.175Z,0
2019-05-13T23:54:31.614Z,0
2019-05-13T23:57:33.739Z,0
